createdAt,value
2023-05-31T00:01:11.352Z,6.00
2023-05-31T00:03:59.477Z,6.35
2023-05-31T00:06:47.599Z,6.50
2023-05-31T00:10:04.064Z,6.30
2023-05-31T00:12:51.863Z,5.70
2023-05-31T00:15:39.659Z,6.10
2023-05-31T00:18:27.569Z,6.70
2023-05-31T00:21:16.231Z,6.00
2023-05-31T00:24:04.094Z,6.10
2023-05-31T00:26:51.970Z,6.45
2023-05-31T00:29:39.721Z,6.57
2023-05-31T00:32:27.842Z,6.20
2023-05-31T00:35:15.831Z,6.13
2023-05-31T00:38:08.420Z,6.55
2023-05-31T00:40:56.467Z,6.63
2023-05-31T00:43:44.837Z,6.80
2023-05-31T00:46:37.052Z,6.30
2023-05-31T00:49:27.945Z,6.85
2023-05-31T00:52:16.297Z,6.65
2023-05-31T00:55:05.776Z,6.65
2023-05-31T00:57:53.855Z,7.15
2023-05-31T01:00:41.671Z,6.30
2023-05-31T01:03:29.643Z,6.80
2023-05-31T01:06:17.940Z,6.53
2023-05-31T01:09:11.212Z,6.18
2023-05-31T01:12:22.889Z,6.63
2023-05-31T01:15:35.271Z,6.47
2023-05-31T01:18:59.047Z,6.45
2023-05-31T01:25:38.395Z,6.20
2023-05-31T01:28:36.272Z,7.28
2023-05-31T01:31:24.497Z,6.82
2023-05-31T01:34:13.693Z,6.78
2023-05-31T01:37:01.534Z,6.13
2023-05-31T01:39:52.941Z,6.85
2023-05-31T01:42:43.444Z,6.68
2023-05-31T01:45:32.786Z,7.07
2023-05-31T01:48:21.094Z,7.28
2023-05-31T01:51:15.401Z,6.68
2023-05-31T01:54:03.754Z,6.93
2023-05-31T01:56:53.406Z,7.47
2023-05-31T02:00:37.710Z,6.97
2023-05-31T02:03:26.856Z,7.45
2023-05-31T02:06:14.975Z,7.70
2023-05-31T02:09:07.017Z,6.88
2023-05-31T02:14:44.182Z,7.10
2023-05-31T02:17:34.686Z,7.55
2023-05-31T02:20:24.972Z,6.70
2023-05-31T02:23:17.417Z,7.57
2023-05-31T02:26:06.323Z,8.02
2023-05-31T02:28:54.737Z,8.10
2023-05-31T02:31:43.246Z,7.90
2023-05-31T02:34:32.880Z,8.68
2023-05-31T02:37:21.020Z,8.00
2023-05-31T02:40:09.964Z,7.80
2023-05-31T02:42:58.649Z,7.93
2023-05-31T02:45:46.965Z,8.02
2023-05-31T02:48:35.859Z,8.68
2023-05-31T02:51:29.178Z,8.07
2023-05-31T02:54:43.271Z,8.00
2023-05-31T02:57:35.981Z,8.15
2023-05-31T03:00:25.111Z,8.18
2023-05-31T03:03:13.446Z,8.23
2023-05-31T03:06:20.539Z,8.15
2023-05-31T03:09:08.789Z,8.70
2023-05-31T03:11:58.401Z,9.15
2023-05-31T03:14:48.595Z,9.15
2023-05-31T03:17:38.498Z,8.38
2023-05-31T03:20:26.998Z,8.80
2023-05-31T03:23:14.934Z,9.27
2023-05-31T03:26:05.961Z,9.20
2023-05-31T03:28:54.130Z,8.85
2023-05-31T03:31:42.739Z,9.02
2023-05-31T03:34:31.663Z,8.85
2023-05-31T03:37:20.250Z,9.15
2023-05-31T03:40:16.925Z,8.98
2023-05-31T03:43:06.184Z,8.73
2023-05-31T03:45:54.571Z,9.25
2023-05-31T03:48:42.994Z,10.07
2023-05-31T03:51:31.454Z,9.68
2023-05-31T03:54:19.586Z,9.57
2023-05-31T03:57:08.526Z,9.82
2023-05-31T03:59:56.834Z,10.50
2023-05-31T04:02:55.974Z,11.52
2023-05-31T04:05:51.221Z,10.55
2023-05-31T04:08:39.343Z,10.15
2023-05-31T04:11:27.157Z,9.77
2023-05-31T04:14:15.171Z,10.15
2023-05-31T04:17:03.826Z,9.82
2023-05-31T04:19:52.413Z,10.20
2023-05-31T04:22:40.458Z,10.98
2023-05-31T04:25:28.814Z,11.00
2023-05-31T04:28:21.530Z,10.82
2023-05-31T04:33:58.189Z,10.32
2023-05-31T04:36:52.735Z,10.57
2023-05-31T04:39:43.610Z,10.80
2023-05-31T04:42:33.741Z,11.43
2023-05-31T04:45:22.756Z,10.40
2023-05-31T04:48:16.248Z,10.38
2023-05-31T04:51:05.505Z,10.77
2023-05-31T04:53:54.722Z,10.10
2023-05-31T04:56:43.364Z,9.93
2023-05-31T04:59:33.246Z,9.85
2023-05-31T05:02:25.249Z,10.43
2023-05-31T05:05:14.286Z,9.73
2023-05-31T05:08:02.363Z,10.40
2023-05-31T05:10:50.971Z,10.75
2023-05-31T05:16:31.053Z,10.35
2023-05-31T05:19:19.311Z,10.18
2023-05-31T05:22:08.216Z,10.90
2023-05-31T05:24:56.190Z,10.52
2023-05-31T05:27:44.372Z,10.50
2023-05-31T05:30:33.670Z,10.32
2023-05-31T05:34:00.694Z,10.90
2023-05-31T05:36:41.830Z,10.80
2023-05-31T05:39:29.845Z,10.75
2023-05-31T05:42:18.102Z,10.35
2023-05-31T05:45:10.219Z,10.85
2023-05-31T05:47:59.575Z,10.00
2023-05-31T05:50:48.373Z,10.63
2023-05-31T05:53:36.413Z,11.02
2023-05-31T05:56:24.558Z,11.60
2023-05-31T05:59:18.825Z,10.98
2023-05-31T06:02:34.113Z,10.63
2023-05-31T06:05:27.856Z,10.70
2023-05-31T06:08:16.855Z,10.95
2023-05-31T06:11:12.522Z,10.45
2023-05-31T06:14:06.392Z,10.35
2023-05-31T06:17:00.714Z,10.88
2023-05-31T06:19:48.675Z,11.13
2023-05-31T06:22:36.475Z,10.13
2023-05-31T06:25:24.443Z,10.55
2023-05-31T06:28:12.640Z,9.82
2023-05-31T06:31:02.160Z,10.60
2023-05-31T06:33:57.836Z,10.40
2023-05-31T06:36:55.053Z,10.45
2023-05-31T06:39:43.533Z,10.13
2023-05-31T06:42:31.806Z,10.10
2023-05-31T06:46:15.210Z,10.10
2023-05-31T06:49:38.161Z,10.60
2023-05-31T06:52:42.004Z,9.75
2023-05-31T06:55:48.779Z,9.80
2023-05-31T07:01:37.842Z,10.10
2023-05-31T07:04:26.892Z,8.98
2023-05-31T07:07:26.754Z,9.77
2023-05-31T07:10:23.641Z,9.40
2023-05-31T07:13:28.833Z,9.23
2023-05-31T07:16:17.871Z,9.25
2023-05-31T07:19:11.555Z,9.38
2023-05-31T07:22:01.363Z,8.55
2023-05-31T07:24:49.613Z,9.38
2023-05-31T07:27:38.014Z,9.00
2023-05-31T07:30:26.548Z,9.05
2023-05-31T07:33:14.455Z,9.23
2023-05-31T07:36:12.725Z,9.15
2023-05-31T07:39:00.929Z,8.18
2023-05-31T07:41:48.798Z,8.75
2023-05-31T07:44:36.711Z,8.35
2023-05-31T07:47:25.359Z,8.98
2023-05-31T07:50:13.336Z,9.05
2023-05-31T07:53:01.240Z,8.52
2023-05-31T07:55:49.165Z,8.40
2023-05-31T07:58:37.666Z,9.07
2023-05-31T08:01:25.546Z,9.02
2023-05-31T08:04:13.599Z,9.45
2023-05-31T08:07:02.240Z,8.40
2023-05-31T08:09:50.040Z,8.23
2023-05-31T08:13:08.317Z,7.68
2023-05-31T08:15:56.911Z,8.07
2023-05-31T08:18:46.111Z,7.75
2023-05-31T08:21:34.032Z,7.78
2023-05-31T08:24:21.838Z,8.00
2023-05-31T08:27:09.632Z,7.93
2023-05-31T08:29:57.489Z,7.95
2023-05-31T08:32:45.575Z,7.45
2023-05-31T08:35:33.363Z,7.28
2023-05-31T08:38:21.117Z,7.45
2023-05-31T08:41:09.081Z,8.32
2023-05-31T08:43:58.075Z,8.13
2023-05-31T08:46:49.085Z,7.03
2023-05-31T08:49:37.362Z,7.60
2023-05-31T08:52:26.496Z,6.75
2023-05-31T08:55:15.129Z,7.60
2023-05-31T08:58:03.797Z,7.63
2023-05-31T09:00:51.809Z,6.07
2023-05-31T09:03:43.263Z,6.97
2023-05-31T09:06:31.605Z,7.20
2023-05-31T09:09:20.185Z,7.05
2023-05-31T09:12:08.469Z,7.10
2023-05-31T09:14:56.400Z,6.18
2023-05-31T09:17:47.687Z,6.72
2023-05-31T09:20:35.668Z,5.93
2023-05-31T09:23:23.540Z,7.00
2023-05-31T09:26:11.406Z,7.28
2023-05-31T09:28:59.966Z,6.97
2023-05-31T09:31:48.310Z,6.80
2023-05-31T09:34:36.068Z,6.78
2023-05-31T09:37:25.758Z,7.60
2023-05-31T09:40:30.795Z,6.18
2023-05-31T09:43:18.534Z,6.22
2023-05-31T09:46:13.276Z,6.70
2023-05-31T09:49:07.773Z,6.30
2023-05-31T09:51:56.943Z,5.82
2023-05-31T09:54:44.865Z,5.43
2023-05-31T09:57:41.389Z,5.55
2023-05-31T10:00:29.426Z,5.40
2023-05-31T10:03:17.895Z,4.85
2023-05-31T10:06:05.943Z,5.65
2023-05-31T10:08:54.004Z,5.70
2023-05-31T10:11:51.397Z,5.63
2023-05-31T10:14:47.236Z,5.40
2023-05-31T10:17:46.192Z,5.63
2023-05-31T10:20:57.216Z,5.68
2023-05-31T10:23:56.075Z,5.20
2023-05-31T10:27:25.228Z,6.18
2023-05-31T10:30:14.945Z,4.60
2023-05-31T10:33:13.360Z,4.65
2023-05-31T10:36:01.982Z,4.68
2023-05-31T10:39:01.297Z,5.18
2023-05-31T10:41:59.294Z,5.07
2023-05-31T10:45:05.099Z,4.80
2023-05-31T10:48:03.529Z,4.68
2023-05-31T10:51:00.061Z,4.68
2023-05-31T10:53:48.140Z,4.50
2023-05-31T10:56:40.171Z,4.32
2023-05-31T10:59:28.336Z,4.70
2023-05-31T11:02:18.204Z,4.78
2023-05-31T11:05:28.044Z,3.20
2023-05-31T11:08:16.248Z,3.30
2023-05-31T11:11:32.841Z,3.38
2023-05-31T11:14:27.568Z,3.28
2023-05-31T11:17:16.811Z,3.30
2023-05-31T11:20:06.720Z,3.17
2023-05-31T11:23:32.810Z,2.72
2023-05-31T11:26:22.180Z,2.80
2023-05-31T11:29:10.030Z,2.55
2023-05-31T11:32:00.391Z,3.35
2023-05-31T11:34:57.406Z,2.57
2023-05-31T11:37:45.418Z,2.33
2023-05-31T11:40:36.547Z,3.00
2023-05-31T11:43:27.106Z,3.05
2023-05-31T11:46:15.245Z,2.30
2023-05-31T11:49:03.092Z,2.75
2023-05-31T11:51:50.990Z,2.97
2023-05-31T11:54:38.960Z,2.35
2023-05-31T11:57:27.434Z,2.70
2023-05-31T12:00:16.588Z,2.95
2023-05-31T12:03:06.837Z,3.22
2023-05-31T12:06:00.299Z,2.92
2023-05-31T12:08:48.137Z,2.70
2023-05-31T12:11:37.126Z,2.72
2023-05-31T12:14:27.421Z,3.17
2023-05-31T12:17:15.484Z,3.03
2023-05-31T12:20:06.173Z,3.00
2023-05-31T12:23:08.476Z,2.97
2023-05-31T12:26:00.130Z,2.40
2023-05-31T12:28:48.326Z,3.10
2023-05-31T12:31:38.822Z,2.83
2023-05-31T12:34:27.331Z,2.73
2023-05-31T12:37:15.148Z,3.50
2023-05-31T12:40:17.817Z,2.90
2023-05-31T12:43:06.849Z,3.08
2023-05-31T12:45:54.664Z,2.72
2023-05-31T12:48:49.571Z,3.00
2023-05-31T12:51:37.897Z,3.22
2023-05-31T12:54:31.902Z,2.75
2023-05-31T12:57:19.712Z,2.45
2023-05-31T13:00:12.417Z,2.70
2023-05-31T13:03:00.533Z,2.88
2023-05-31T13:05:48.545Z,2.92
2023-05-31T13:08:36.362Z,3.15
2023-05-31T13:11:24.164Z,3.50
2023-05-31T13:14:12.518Z,2.95
2023-05-31T13:17:00.571Z,3.03
2023-05-31T13:19:57.157Z,2.33
2023-05-31T13:22:59.012Z,2.53
2023-05-31T13:25:47.486Z,2.63
2023-05-31T13:28:35.448Z,2.42
2023-05-31T13:31:24.960Z,3.10
2023-05-31T13:34:12.747Z,2.65
2023-05-31T13:37:00.544Z,3.00
2023-05-31T13:39:48.874Z,3.08
2023-05-31T13:42:36.636Z,3.20
2023-05-31T13:45:24.487Z,3.15
2023-05-31T13:48:14.506Z,2.70
2023-05-31T13:51:02.566Z,2.78
2023-05-31T13:53:50.785Z,2.97
2023-05-31T13:56:38.616Z,2.92
2023-05-31T13:59:26.418Z,3.10
2023-05-31T14:02:14.163Z,2.88
2023-05-31T14:05:04.483Z,2.92
2023-05-31T14:07:52.511Z,3.25
2023-05-31T14:10:40.606Z,3.20
2023-05-31T14:13:30.205Z,3.40
2023-05-31T14:16:18.072Z,3.22
2023-05-31T14:19:06.296Z,2.55
2023-05-31T14:21:54.056Z,3.50
2023-05-31T14:24:41.909Z,2.95
2023-05-31T14:27:29.715Z,2.65
2023-05-31T14:30:17.520Z,2.80
2023-05-31T14:33:05.578Z,2.63
2023-05-31T14:35:53.891Z,2.75
2023-05-31T14:38:43.129Z,2.90
2023-05-31T14:41:30.993Z,2.75
2023-05-31T14:44:18.862Z,3.17
2023-05-31T14:47:06.881Z,2.80
2023-05-31T14:49:54.643Z,2.53
2023-05-31T14:52:42.467Z,2.85
2023-05-31T14:55:30.436Z,2.80
2023-05-31T14:58:18.378Z,2.95
2023-05-31T15:01:06.408Z,2.67
2023-05-31T15:03:56.285Z,2.92
2023-05-31T15:06:44.208Z,3.03
2023-05-31T15:09:32.067Z,3.63
2023-05-31T15:12:19.791Z,2.58
2023-05-31T15:15:08.142Z,3.10
2023-05-31T15:17:56.009Z,2.72
2023-05-31T15:20:43.785Z,2.67
2023-05-31T15:23:31.586Z,2.95
2023-05-31T15:26:19.629Z,2.70
2023-05-31T15:29:07.462Z,3.22
2023-05-31T15:31:58.122Z,2.70
2023-05-31T15:34:45.982Z,3.05
2023-05-31T15:37:34.520Z,2.60
2023-05-31T15:40:22.321Z,2.30
2023-05-31T15:43:10.052Z,3.00
2023-05-31T15:45:57.912Z,2.58
2023-05-31T15:48:45.718Z,2.53
2023-05-31T15:51:33.465Z,2.80
2023-05-31T15:54:21.370Z,2.40
2023-05-31T15:57:09.786Z,2.65
2023-05-31T15:59:57.525Z,2.83
2023-05-31T16:02:45.345Z,2.63
2023-05-31T16:05:33.386Z,2.55
2023-05-31T16:08:21.293Z,2.70
2023-05-31T16:11:09.146Z,2.40
2023-05-31T16:13:56.888Z,2.30
2023-05-31T16:16:44.726Z,2.58
2023-05-31T16:19:32.620Z,2.30
2023-05-31T16:22:20.473Z,2.67
2023-05-31T16:25:10.462Z,3.00
2023-05-31T16:27:58.252Z,3.00
2023-05-31T16:30:46.337Z,2.60
2023-05-31T16:33:34.089Z,3.10
2023-05-31T16:36:22.238Z,2.67
2023-05-31T16:39:10.060Z,2.65
2023-05-31T16:41:59.197Z,2.50
2023-05-31T16:44:46.926Z,2.20
2023-05-31T16:47:34.730Z,2.47
2023-05-31T16:50:22.673Z,2.35
2023-05-31T16:53:10.895Z,2.00
2023-05-31T16:55:58.904Z,2.55
2023-05-31T16:58:46.768Z,2.42
2023-05-31T17:01:35.056Z,2.70
2023-05-31T17:04:22.908Z,2.60
2023-05-31T17:07:10.867Z,2.63
2023-05-31T17:09:59.193Z,1.98
2023-05-31T17:12:48.076Z,2.50
2023-05-31T17:15:36.036Z,2.97
2023-05-31T17:18:24.104Z,2.50
2023-05-31T17:21:11.828Z,2.58
2023-05-31T17:23:59.694Z,2.50
2023-05-31T17:26:48.413Z,2.40
2023-05-31T17:29:36.166Z,2.55
2023-05-31T17:32:23.914Z,2.70
2023-05-31T17:35:11.705Z,2.80
2023-05-31T17:37:59.417Z,2.40
2023-05-31T17:40:47.236Z,2.22
2023-05-31T17:43:36.333Z,3.00
2023-05-31T17:46:24.367Z,2.50
2023-05-31T17:49:12.252Z,2.60
2023-05-31T17:52:00.149Z,3.35
2023-05-31T17:54:47.957Z,2.72
2023-05-31T17:57:36.184Z,2.50
2023-05-31T18:00:24.047Z,2.92
2023-05-31T18:03:11.860Z,3.00
2023-05-31T18:05:59.858Z,3.72
2023-05-31T18:08:47.643Z,3.50
2023-05-31T18:11:35.403Z,3.28
2023-05-31T18:14:23.228Z,3.15
2023-05-31T18:17:11.008Z,3.50
2023-05-31T18:19:58.806Z,3.60
2023-05-31T18:22:46.632Z,3.33
2023-05-31T18:25:34.932Z,3.08
2023-05-31T18:28:23.500Z,3.17
2023-05-31T18:31:11.425Z,3.03
2023-05-31T18:33:59.791Z,3.17
2023-05-31T18:36:47.667Z,3.30
2023-05-31T18:39:35.687Z,2.78
2023-05-31T18:42:23.513Z,3.60
2023-05-31T18:45:12.995Z,2.92
2023-05-31T18:48:06.864Z,3.03
2023-05-31T18:50:54.707Z,3.03
2023-05-31T18:53:42.645Z,3.03
2023-05-31T18:56:31.209Z,3.22
2023-05-31T18:59:19.327Z,2.65
2023-05-31T19:02:07.904Z,3.53
2023-05-31T19:04:55.848Z,3.00
2023-05-31T19:07:44.037Z,3.50
2023-05-31T19:10:34.871Z,3.13
2023-05-31T19:13:22.754Z,4.10
2023-05-31T19:16:10.734Z,3.38
2023-05-31T19:18:58.750Z,3.53
2023-05-31T19:21:46.692Z,2.88
2023-05-31T19:24:34.572Z,2.80
2023-05-31T19:27:22.369Z,3.13
2023-05-31T19:30:10.866Z,2.70
2023-05-31T19:32:58.672Z,2.83
2023-05-31T19:35:46.890Z,3.40
2023-05-31T19:38:34.691Z,2.80
2023-05-31T19:41:22.951Z,2.60
2023-05-31T19:44:10.817Z,2.65
2023-05-31T19:46:58.651Z,2.53
2023-05-31T19:49:46.529Z,2.88
2023-05-31T19:52:34.341Z,2.65
2023-05-31T19:55:22.093Z,2.80
2023-05-31T19:58:09.900Z,2.53
2023-05-31T20:00:57.868Z,2.97
2023-05-31T20:03:45.878Z,3.00
2023-05-31T20:06:33.734Z,2.65
2023-05-31T20:09:21.494Z,2.40
2023-05-31T20:12:09.661Z,2.70
2023-05-31T20:14:58.389Z,2.97
2023-05-31T20:17:47.664Z,2.78
2023-05-31T20:20:35.488Z,2.08
2023-05-31T20:23:23.283Z,2.67
2023-05-31T20:26:11.304Z,2.40
2023-05-31T20:28:59.084Z,2.67
2023-05-31T20:31:47.093Z,2.35
2023-05-31T20:34:34.970Z,3.08
2023-05-31T20:37:22.707Z,2.88
2023-05-31T20:40:11.392Z,2.97
2023-05-31T20:42:59.196Z,2.53
2023-05-31T20:45:46.983Z,2.72
2023-05-31T20:48:34.765Z,2.88
2023-05-31T20:51:23.549Z,2.58
2023-05-31T20:54:11.347Z,2.75
2023-05-31T20:56:59.916Z,3.45
2023-05-31T20:59:47.918Z,2.92
2023-05-31T21:02:38.008Z,3.70
2023-05-31T21:05:26.035Z,3.67
2023-05-31T21:08:13.795Z,3.35
2023-05-31T21:11:01.580Z,3.13
2023-05-31T21:13:49.421Z,3.95
2023-05-31T21:16:37.316Z,3.53
2023-05-31T21:19:25.866Z,3.58
2023-05-31T21:22:13.599Z,3.15
2023-05-31T21:25:01.357Z,3.28
2023-05-31T21:27:49.094Z,3.65
2023-05-31T21:30:36.950Z,3.80
2023-05-31T21:33:24.853Z,4.05
2023-05-31T21:36:12.595Z,4.03
2023-05-31T21:39:00.423Z,4.00
2023-05-31T21:41:48.243Z,4.43
2023-05-31T21:44:36.186Z,3.90
2023-05-31T21:47:23.969Z,3.80
2023-05-31T21:50:11.914Z,4.38
2023-05-31T21:52:59.753Z,4.93
2023-05-31T21:55:47.564Z,4.43
2023-05-31T21:58:35.353Z,5.18
2023-05-31T22:01:24.904Z,4.88
2023-05-31T22:04:12.800Z,4.93
2023-05-31T22:07:00.576Z,5.00
2023-05-31T22:09:48.499Z,5.10
2023-05-31T22:12:36.543Z,5.07
2023-05-31T22:15:27.040Z,5.50
2023-05-31T22:18:15.197Z,5.90
2023-05-31T22:21:05.706Z,5.88
2023-05-31T22:23:54.102Z,5.93
2023-05-31T22:26:41.923Z,6.85
2023-05-31T22:29:29.668Z,6.28
2023-05-31T22:32:19.879Z,6.30
2023-05-31T22:35:08.263Z,6.38
2023-05-31T22:37:56.267Z,6.65
2023-05-31T22:40:44.265Z,6.95
2023-05-31T22:43:32.366Z,6.95
2023-05-31T22:46:20.600Z,7.20
2023-05-31T22:49:08.424Z,6.80
2023-05-31T22:52:00.023Z,6.82
2023-05-31T22:54:48.255Z,7.22
2023-05-31T22:57:36.062Z,7.18
2023-05-31T23:00:23.864Z,7.28
2023-05-31T23:03:11.718Z,7.45
2023-05-31T23:06:01.758Z,7.60
2023-05-31T23:08:50.246Z,7.47
2023-05-31T23:11:38.343Z,7.65
2023-05-31T23:14:27.510Z,8.07
2023-05-31T23:17:17.398Z,8.32
2023-05-31T23:20:16.246Z,8.00
2023-05-31T23:23:05.678Z,8.65
2023-05-31T23:25:53.662Z,8.43
2023-05-31T23:28:41.468Z,8.95
2023-05-31T23:31:29.451Z,8.27
2023-05-31T23:34:17.342Z,8.07
2023-05-31T23:37:05.713Z,8.43
2023-05-31T23:39:54.076Z,8.90
2023-05-31T23:42:41.906Z,9.00
2023-05-31T23:45:29.832Z,8.57
2023-05-31T23:48:17.577Z,8.73
2023-05-31T23:51:05.545Z,9.32
2023-05-31T23:53:53.386Z,9.93
2023-05-31T23:56:41.381Z,9.10
2023-05-31T23:59:29.209Z,10.32
